Time;durP1;ratioP1;P1;durP2;ratioP2;P2;SDS_P1;SDS_P2;PMS_P1;PMS_P2;Temp;Humidity;BMP_temperature;BMP_pressure;BME280_temperature;BME280_humidity;BME280_pressure;Samples;Min_cycle;Max_cycle;Signal;HPM_P1;HPM_P2
2021/08/08 00:00:14;;;;;;;2.33;0.73;;;;;;;11.43;79.21;90355.56;5041998;28;20036;-86
2021/08/08 00:02:45;;;;;;;1.70;0.70;;;;;;;11.37;80.41;90356.19;5059782;28;20039;-87
2021/08/08 00:05:19;;;;;;;3.10;0.60;;;;;;;11.35;80.60;90353.94;5025917;28;20021;-86
2021/08/08 00:07:56;;;;;;;1.58;0.60;;;;;;;11.35;80.94;90361.00;5042297;28;20032;-86
2021/08/08 00:10:37;;;;;;;2.85;0.60;;;;;;;11.26;81.30;90358.59;5042719;28;20037;-87
2021/08/08 00:13:18;;;;;;;3.85;0.77;;;;;;;11.10;82.71;90366.53;5044273;28;20016;-86
2021/08/08 00:15:59;;;;;;;6.28;0.80;;;;;;;11.27;81.72;90362.72;5043082;28;20263;-87
2021/08/08 00:18:38;;;;;;;2.15;0.80;;;;;;;11.18;82.43;90356.97;5043625;28;20404;-87
2021/08/08 00:21:13;;;;;;;12.88;1.98;;;;;;;11.27;81.73;90354.88;5043502;28;20024;-87
2021/08/08 00:23:54;;;;;;;3.38;0.77;;;;;;;11.12;83.63;90359.09;5026916;28;20024;-85
2021/08/08 00:26:34;;;;;;;3.90;0.77;;;;;;;11.15;82.74;90357.66;5027706;28;20203;-87
2021/08/08 00:29:11;;;;;;;2.88;0.68;;;;;;;11.13;82.96;90365.06;5020350;28;20108;-86
2021/08/08 00:31:49;;;;;;;3.15;0.57;;;;;;;11.21;81.51;90361.50;5003385;28;20026;-87
2021/08/08 00:34:28;;;;;;;2.28;0.60;;;;;;;11.03;81.40;90368.25;4987639;28;20026;-87
2021/08/08 00:37:07;;;;;;;1.55;0.40;;;;;;;10.84;82.64;90372.31;5004175;28;20479;-87
2021/08/08 00:39:46;;;;;;;1.85;0.45;;;;;;;10.87;81.77;90379.47;5019916;28;20025;-85
2021/08/08 00:42:26;;;;;;;3.40;0.65;;;;;;;10.89;81.51;90373.94;4987956;28;20033;-86
2021/08/08 00:45:04;;;;;;;2.13;0.40;;;;;;;10.77;81.65;90380.00;4988068;28;20025;-87
2021/08/08 00:47:36;;;;;;;1.90;0.60;;;;;;;10.83;80.73;90383.09;4988336;28;20036;-88
2021/08/08 00:50:14;;;;;;;2.40;0.70;;;;;;;10.73;81.54;90377.31;5019671;28;20033;-87
2021/08/08 00:52:58;;;;;;;2.88;0.52;;;;;;;10.69;81.88;90379.09;4995413;28;20464;-86
2021/08/08 00:55:36;;;;;;;4.22;0.60;;;;;;;10.69;80.77;90379.09;5031278;28;20041;-86
2021/08/08 00:58:13;;;;;;;1.15;0.50;;;;;;;10.61;81.79;90381.91;5026135;28;20045;-87
2021/08/08 01:00:48;;;;;;;1.50;0.60;;;;;;;10.66;80.37;90389.44;5004679;28;20022;-85
2021/08/08 01:03:28;;;;;;;2.03;0.50;;;;;;;10.50;81.73;90382.44;5001275;28;20025;-86
2021/08/08 01:06:15;;;;;;;4.25;0.68;;;;;;;10.44;82.02;90381.19;5016749;28;20303;-85
2021/08/08 01:08:58;;;;;;;4.68;0.57;;;;;;;10.49;81.34;90374.94;5001401;28;20021;-85
2021/08/08 01:11:32;;;;;;;3.40;0.47;;;;;;;10.47;81.50;90383.13;5016841;28;20030;-85
2021/08/08 01:14:11;;;;;;;3.28;0.40;;;;;;;10.44;82.01;90373.38;4999857;28;20030;-85
2021/08/08 01:16:48;;;;;;;1.65;0.50;;;;;;;10.34;82.58;90373.88;5016756;28;20025;-85
2021/08/08 01:19:26;;;;;;;0.88;0.40;;;;;;;10.38;83.06;90373.97;4983715;28;20032;-85
2021/08/08 01:22:00;;;;;;;3.38;0.50;;;;;;;10.39;82.79;90378.06;4983723;28;20029;-85
2021/08/08 01:24:38;;;;;;;1.48;0.52;;;;;;;10.50;82.58;90379.84;4983246;28;20108;-85
2021/08/08 01:27:13;;;;;;;1.50;0.50;;;;;;;10.39;83.34;90384.06;5014127;28;20480;-85
2021/08/08 01:29:39;;;;;;;3.03;0.50;;;;;;;10.43;82.85;90382.28;5016140;28;20060;-85
2021/08/08 01:32:13;;;;;;;2.30;0.50;;;;;;;10.40;82.86;90372.53;4982820;28;20466;-85
2021/08/08 01:34:50;;;;;;;1.58;0.50;;;;;;;10.44;82.29;90383.78;5016155;28;20025;-84
2021/08/08 01:37:30;;;;;;;5.07;0.60;;;;;;;10.30;83.10;90393.91;5015624;28;20063;-85
2021/08/08 01:40:23;;;;;;;2.35;0.70;;;;;;;10.37;83.29;90388.09;5021007;28;20025;-86
2021/08/08 01:42:58;;;;;;;2.53;0.60;;;;;;;10.45;82.52;90385.28;4996058;28;20036;-85
2021/08/08 01:45:33;;;;;;;1.70;0.60;;;;;;;10.34;82.95;90389.50;5000717;28;20483;-86
2021/08/08 01:48:10;;;;;;;1.30;0.57;;;;;;;10.20;83.63;90382.09;5017794;28;20040;-87
2021/08/08 01:50:44;;;;;;;1.95;0.70;;;;;;;10.29;83.05;90382.72;5016734;28;20049;-85
2021/08/08 01:53:26;;;;;;;5.97;1.75;;;;;;;10.40;82.26;90385.56;5016436;28;20021;-86
2021/08/08 01:55:57;;;;;;;2.95;0.70;;;;;;;10.26;83.01;90382.66;5015624;28;20108;-87
2021/08/08 01:58:38;;;;;;;1.98;0.80;;;;;;;10.32;82.68;90383.91;5016369;28;20021;-85
2021/08/08 02:01:20;;;;;;;4.72;0.75;;;;;;;10.22;83.65;90381.78;5015727;28;20025;-86
2021/08/08 02:03:58;;;;;;;2.78;0.80;;;;;;;10.28;83.72;90372.63;5016951;28;20041;-86
2021/08/08 02:06:41;;;;;;;4.57;0.80;;;;;;;10.16;84.48;90376.06;5000659;28;20497;-86
2021/08/08 02:09:17;;;;;;;2.90;0.80;;;;;;;10.23;83.10;90367.66;5015302;28;20056;-87
2021/08/08 02:11:57;;;;;;;1.95;0.70;;;;;;;10.25;83.60;90375.91;5000031;28;20034;-85
2021/08/08 02:14:37;;;;;;;2.55;0.70;;;;;;;10.15;84.05;90384.22;5016600;28;20033;-87
2021/08/08 02:17:17;;;;;;;3.38;0.77;;;;;;;10.16;83.98;90388.34;5017495;28;20057;-85
2021/08/08 02:19:55;;;;;;;1.55;0.73;;;;;;;10.11;84.48;90391.97;5015803;28;20026;-86
2021/08/08 02:22:37;;;;;;;2.15;0.77;;;;;;;9.81;85.76;90381.19;5016548;28;20032;-87
2021/08/08 02:25:14;;;;;;;2.95;0.70;;;;;;;9.93;85.46;90383.72;5018626;28;20029;-86
2021/08/08 02:27:49;;;;;;;2.53;0.80;;;;;;;10.00;84.63;90386.50;5039897;28;20029;-87
2021/08/08 02:30:24;;;;;;;1.85;0.75;;;;;;;9.98;84.88;90383.47;5024165;28;20492;-85
2021/08/08 02:33:00;;;;;;;2.05;0.73;;;;;;;10.06;84.12;90379.94;5025109;28;20028;-86
2021/08/08 02:35:35;;;;;;;2.17;0.85;;;;;;;10.00;84.10;90389.09;5040578;28;20389;-86
2021/08/08 02:38:10;;;;;;;2.45;0.70;;;;;;;9.99;84.87;90400.59;5041761;28;20024;-86
2021/08/08 02:40:45;;;;;;;2.75;1.10;;;;;;;10.01;84.13;90372.38;5024798;28;20031;-86
2021/08/08 02:43:20;;;;;;;2.90;0.80;;;;;;;9.99;84.74;90387.56;5040444;28;20028;-85
2021/08/08 02:45:59;;;;;;;2.33;1.00;;;;;;;9.96;85.16;90383.03;5024226;28;20032;-86
2021/08/08 02:48:38;;;;;;;3.17;0.68;;;;;;;10.00;85.03;90388.31;5041590;28;20489;-86
2021/08/08 02:51:16;;;;;;;4.07;0.80;;;;;;;9.91;86.17;90396.31;5004391;28;20025;-87
2021/08/08 02:53:57;;;;;;;4.03;0.88;;;;;;;9.89;86.50;90385.47;5002875;28;20037;-87
2021/08/08 02:56:36;;;;;;;1.65;0.80;;;;;;;9.98;86.35;90393.13;5004945;28;20553;-87
2021/08/08 02:59:10;;;;;;;4.13;1.33;;;;;;;9.90;86.18;90397.41;5003736;28;20033;-87
2021/08/08 03:01:43;;;;;;;;;;;;;;;10.04;84.51;90402.22;5004373;28;20032;-87
2021/08/08 03:04:21;;;;;;;3.33;1.10;;;;;;;10.04;85.48;90402.22;5020475;28;19909;-85
2021/08/08 03:06:59;;;;;;;4.20;0.88;;;;;;;10.11;85.48;90404.97;5017598;28;20029;-85
2021/08/08 03:09:36;;;;;;;2.45;0.90;;;;;;;10.09;86.53;90403.78;5005675;28;20049;-86
2021/08/08 03:12:09;;;;;;;2.50;0.80;;;;;;;10.00;86.09;90403.94;5016028;28;20033;-85
2021/08/08 03:14:47;;;;;;;2.80;0.80;;;;;;;10.17;84.96;90405.47;5000062;28;20026;-86
2021/08/08 03:17:26;;;;;;;1.90;0.82;;;;;;;10.12;86.27;90410.94;4999866;28;20060;-86
2021/08/08 03:20:01;;;;;;;1.27;0.85;;;;;;;10.11;86.71;90412.03;4986255;28;20029;-85
2021/08/08 03:22:42;;;;;;;3.45;0.80;;;;;;;10.02;87.49;90420.75;5003323;28;20033;-87
2021/08/08 03:25:19;;;;;;;3.92;0.90;;;;;;;10.12;86.83;90418.75;5024948;28;20021;-84
2021/08/08 03:27:56;;;;;;;7.88;1.10;;;;;;;10.06;87.20;90411.16;5044303;28;20020;-86
2021/08/08 03:30:32;;;;;;;2.05;0.85;;;;;;;10.19;86.47;90424.88;5027463;28;20025;-87
2021/08/08 03:33:06;;;;;;;3.75;1.08;;;;;;;10.16;87.79;90430.75;5026606;28;20132;-85
2021/08/08 03:35:51;;;;;;;2.85;0.90;;;;;;;10.12;87.65;90434.38;5060270;28;20134;-85
2021/08/08 03:38:29;;;;;;;3.83;1.00;;;;;;;10.32;85.35;90437.81;5059536;28;20052;-87
2021/08/08 03:41:07;;;;;;;2.40;1.00;;;;;;;10.17;87.36;90436.72;5044121;28;20025;-86
2021/08/08 03:43:51;;;;;;;2.03;0.93;;;;;;;10.24;86.47;90447.28;5044647;28;20052;-86
2021/08/08 03:46:31;;;;;;;3.03;1.10;;;;;;;10.23;86.21;90443.19;5027326;28;20016;-85
2021/08/08 03:49:07;;;;;;;2.28;0.90;;;;;;;10.22;86.78;90452.09;5059931;28;20388;-85
2021/08/08 03:51:49;;;;;;;2.65;0.88;;;;;;;10.24;86.79;90453.25;5044051;28;20044;-86
2021/08/08 03:54:26;;;;;;;6.63;1.00;;;;;;;10.22;85.78;90444.28;5044179;28;20021;-85
2021/08/08 03:57:00;;;;;;;2.78;0.80;;;;;;;10.31;84.42;90442.28;5044271;28;20408;-86
2021/08/08 03:59:38;;;;;;;3.42;1.10;;;;;;;10.29;85.93;90444.47;5043779;28;20511;-85
2021/08/08 04:02:23;;;;;;;4.70;1.10;;;;;;;10.32;85.02;90443.03;5028301;28;20029;-86
2021/08/08 04:05:00;;;;;;;5.10;0.80;;;;;;;10.27;85.91;90446.66;5061681;28;20020;-86
2021/08/08 04:07:38;;;;;;;1.63;0.90;;;;;;;10.31;85.54;90447.47;5044581;28;20025;-87
2021/08/08 04:12:51;;;;;;;4.05;1.42;;;;;;;10.22;84.46;90449.50;5082987;22;20060;-86
2021/08/08 04:15:27;;;;;;;2.38;0.90;;;;;;;10.33;83.63;90458.34;5015445;28;20025;-86
2021/08/08 04:18:11;;;;;;;3.38;1.00;;;;;;;10.38;82.28;90458.06;5015702;28;20037;-86
2021/08/08 04:20:50;;;;;;;2.40;0.90;;;;;;;10.18;82.70;90462.44;5031799;28;20087;-85
2021/08/08 04:23:25;;;;;;;2.20;0.93;;;;;;;10.20;81.67;90465.44;5031636;28;20481;-85
2021/08/08 04:26:05;;;;;;;4.25;0.90;;;;;;;10.23;82.41;90466.63;5028203;28;20482;-85
2021/08/08 04:28:48;;;;;;;1.83;0.90;;;;;;;10.15;82.39;90459.75;5028200;28;20034;-88
2021/08/08 04:31:24;;;;;;;4.20;1.02;;;;;;;10.24;82.48;90466.28;5026002;28;20030;-88
2021/08/08 04:33:59;;;;;;;2.67;0.90;;;;;;;10.22;83.11;90465.13;5027861;28;20099;-88
2021/08/08 04:36:35;;;;;;;;;;;;;;;10.39;82.00;90459.59;4995897;28;20513;-87
2021/08/08 04:39:16;;;;;;;4.85;1.20;;;;;;;10.47;81.54;90461.25;5013357;28;19909;-88
2021/08/08 04:41:57;;;;;;;3.05;1.08;;;;;;;10.41;82.13;90467.06;5027246;28;20026;-87
2021/08/08 04:44:40;;;;;;;3.03;0.90;;;;;;;10.46;82.28;90464.97;5027206;28;20022;-88
2021/08/08 04:47:18;;;;;;;2.30;0.95;;;;;;;10.50;82.26;90467.66;4996047;28;20565;-88
2021/08/08 04:50:04;;;;;;;2.85;1.02;;;;;;;10.63;81.28;90465.69;5010663;28;20029;-88
2021/08/08 04:52:46;;;;;;;4.25;1.00;;;;;;;10.64;81.44;90467.22;5009874;28;20414;-88
2021/08/08 04:55:27;;;;;;;2.95;1.00;;;;;;;10.67;80.73;90474.34;5008787;28;20455;-88
2021/08/08 04:58:02;;;;;;;3.60;1.25;;;;;;;10.72;80.76;90472.25;4995873;28;20401;-87
2021/08/08 05:00:35;;;;;;;2.97;1.05;;;;;;;10.74;81.39;90477.09;5027340;28;20406;-88
2021/08/08 05:03:13;;;;;;;4.85;1.33;;;;;;;10.75;80.18;90489.06;5027600;28;20414;-87
2021/08/08 05:05:53;;;;;;;6.38;1.20;;;;;;;10.91;80.35;90489.78;5010483;28;20026;-87
2021/08/08 05:08:32;;;;;;;6.80;1.10;;;;;;;10.89;80.50;90484.16;5026963;28;20026;-87
2021/08/08 05:11:04;;;;;;;10.05;2.10;;;;;;;10.84;80.53;90479.19;4994294;28;20033;-88
2021/08/08 05:13:40;;;;;;;4.90;1.15;;;;;;;10.76;79.56;90472.31;4978868;28;20065;-88
2021/08/08 05:16:16;;;;;;;5.95;1.38;;;;;;;10.81;79.77;90479.13;5010677;28;20021;-88
2021/08/08 05:18:55;;;;;;;3.58;1.15;;;;;;;10.77;79.97;90479.03;5027228;28;20049;-88
2021/08/08 05:21:22;;;;;;;5.95;1.10;;;;;;;10.81;79.39;90489.53;5029181;28;20030;-89
2021/08/08 05:24:00;;;;;;;4.97;1.17;;;;;;;10.73;79.76;90481.56;5011198;28;20022;-88
2021/08/08 05:26:38;;;;;;;1.45;0.93;;;;;;;10.76;79.87;90477.53;5035080;28;20028;-88
2021/08/08 05:29:11;;;;;;;4.28;1.10;;;;;;;10.81;78.94;90477.25;5035351;28;20028;-87
2021/08/08 05:31:45;;;;;;;2.60;0.95;;;;;;;10.89;78.60;90488.63;5001584;28;20032;-88
2021/08/08 05:34:30;;;;;;;3.92;1.08;;;;;;;10.91;78.71;90483.81;5017855;28;20028;-88
2021/08/08 05:37:07;;;;;;;2.47;0.80;;;;;;;10.85;79.33;90478.13;5051997;28;20086;-87
2021/08/08 05:39:44;;;;;;;6.88;2.00;;;;;;;10.86;79.53;90487.44;5002120;28;20025;-88
2021/08/08 05:42:24;;;;;;;5.65;1.10;;;;;;;10.78;79.83;90493.59;5001926;28;20025;-87
2021/08/08 05:45:02;;;;;;;3.53;0.95;;;;;;;10.94;79.21;90499.53;5002175;28;20017;-88
2021/08/08 05:47:34;;;;;;;8.13;1.10;;;;;;;10.83;79.43;90493.34;5002582;28;20029;-88
2021/08/08 05:50:10;;;;;;;2.65;1.15;;;;;;;10.91;77.98;90495.00;4989672;28;20529;-88
2021/08/08 05:52:50;;;;;;;3.28;1.00;;;;;;;11.07;77.24;90500.19;4994034;28;20030;-88
2021/08/08 05:55:24;;;;;;;3.85;0.90;;;;;;;11.15;77.17;90495.88;5026513;28;20445;-88
2021/08/08 05:57:56;;;;;;;6.43;1.02;;;;;;;11.30;76.92;90497.66;5026748;28;20022;-88
2021/08/08 06:00:35;;;;;;;2.85;0.82;;;;;;;11.41;75.15;90492.66;4993591;28;20413;-88
2021/08/08 06:03:18;;;;;;;4.20;1.02;;;;;;;11.42;75.35;90492.34;5008854;28;20028;-88
2021/08/08 06:05:59;;;;;;;3.08;0.70;;;;;;;11.48;75.10;90504.03;4994514;28;20026;-88
2021/08/08 06:08:42;;;;;;;3.20;0.90;;;;;;;11.61;74.54;90498.66;5009662;28;20172;-88
2021/08/08 06:11:23;;;;;;;3.92;0.73;;;;;;;11.51;74.69;90504.41;4994201;28;20026;-89
2021/08/08 06:14:00;;;;;;;2.95;0.80;;;;;;;11.46;74.77;90508.81;5026009;28;20026;-88
2021/08/08 06:16:33;;;;;;;3.45;0.80;;;;;;;11.62;74.35;90510.59;5025843;28;20040;-89
2021/08/08 06:19:11;;;;;;;4.95;1.02;;;;;;;11.57;74.76;90516.84;5026941;28;20034;-88
2021/08/08 06:21:48;;;;;;;4.55;1.00;;;;;;;11.53;74.17;90516.03;5009849;28;20053;-88
2021/08/08 06:24:26;;;;;;;4.07;1.00;;;;;;;11.51;74.68;90510.41;5026202;28;20033;-88
2021/08/08 06:27:08;;;;;;;5.85;1.20;;;;;;;11.41;75.58;90510.94;5024239;28;20028;-87
2021/08/08 06:29:34;;;;;;;5.88;0.95;;;;;;;11.35;74.07;90494.06;5017674;28;20037;-88
2021/08/08 06:32:11;;;;;;;4.05;1.00;;;;;;;11.40;74.85;90501.59;5049903;28;20024;-87
2021/08/08 06:34:48;;;;;;;5.85;1.00;;;;;;;11.48;74.13;90511.06;5017889;28;20021;-88
2021/08/08 06:37:26;;;;;;;3.95;1.10;;;;;;;11.51;73.66;90502.56;5001469;28;20033;-88
2021/08/08 06:40:07;;;;;;;5.10;0.80;;;;;;;11.66;74.23;90516.66;5001245;28;20025;-88
2021/08/08 06:42:50;;;;;;;3.42;1.05;;;;;;;11.84;74.11;90514.44;5018356;28;20456;-88
2021/08/08 06:45:29;;;;;;;2.92;0.63;;;;;;;11.80;76.89;90516.94;5001366;28;20560;-88
2021/08/08 06:48:09;;;;;;;4.28;1.00;;;;;;;11.89;73.34;90521.97;5001384;28;20029;-88
2021/08/08 06:50:49;;;;;;;5.55;0.90;;;;;;;11.98;72.26;90519.13;5017988;28;20040;-88
2021/08/08 06:53:30;;;;;;;4.07;0.90;;;;;;;12.04;72.04;90526.34;5018243;28;20029;-88
2021/08/08 06:56:07;;;;;;;4.38;0.90;;;;;;;12.07;72.93;90540.59;5021577;28;20025;-86
2021/08/08 06:58:38;;;;;;;6.72;1.48;;;;;;;12.17;70.37;90524.34;5021288;28;20047;-88
2021/08/08 07:01:11;;;;;;;3.72;0.90;;;;;;;12.33;71.22;90527.63;5020548;28;20128;-88
2021/08/08 07:03:47;;;;;;;7.13;1.02;;;;;;;12.17;71.36;90527.72;5021190;28;20163;-88
2021/08/08 07:06:25;;;;;;;4.88;1.00;;;;;;;12.38;71.54;90529.94;5021797;28;20013;-88
2021/08/08 07:09:07;;;;;;;2.95;1.08;;;;;;;12.46;71.75;90543.13;5021972;28;20486;-88
2021/08/08 07:11:49;;;;;;;3.47;0.93;;;;;;;12.51;71.09;90537.59;5021462;28;20108;-88
2021/08/08 07:14:31;;;;;;;4.43;1.20;;;;;;;12.36;70.65;90539.22;5005030;28;20036;-88
2021/08/08 07:17:05;;;;;;;4.88;1.17;;;;;;;12.28;69.59;90538.34;5021104;28;20055;-89
2021/08/08 07:19:42;;;;;;;5.75;1.00;;;;;;;12.31;71.50;90547.34;5004301;28;20031;-88
2021/08/08 07:22:20;;;;;;;2.85;1.05;;;;;;;12.41;69.94;90539.72;5004947;28;20025;-87
2021/08/08 07:25:00;;;;;;;4.53;1.02;;;;;;;12.38;70.24;90537.03;5020836;28;20021;-88
2021/08/08 07:27:38;;;;;;;4.68;1.00;;;;;;;12.38;69.63;90544.88;4982729;28;20026;-88
2021/08/08 07:30:15;;;;;;;4.53;1.15;;;;;;;12.18;69.94;90544.88;5012672;28;20030;-88
2021/08/08 07:32:57;;;;;;;3.72;1.20;;;;;;;12.40;69.68;90546.03;5012584;28;20022;-88
2021/08/08 07:35:33;;;;;;;3.25;0.80;;;;;;;12.40;69.32;90553.88;4995940;28;20026;-88
2021/08/08 07:38:09;;;;;;;4.60;1.02;;;;;;;12.59;71.59;90550.47;5028918;28;20512;-89
2021/08/08 07:40:44;;;;;;;6.38;1.13;;;;;;;12.70;69.00;90555.84;5012293;28;20026;-87
2021/08/08 07:43:26;;;;;;;4.40;1.17;;;;;;;12.60;69.17;90556.44;4996190;28;20065;-88
2021/08/08 07:46:04;;;;;;;3.80;1.23;;;;;;;12.59;68.71;90554.94;5012331;28;20092;-88
2021/08/08 07:48:44;;;;;;;5.43;1.20;;;;;;;12.78;67.98;90543.66;5012909;28;20050;-88
2021/08/08 07:51:25;;;;;;;3.75;1.10;;;;;;;12.52;67.65;90552.94;5028013;28;20041;-88
2021/08/08 07:54:03;;;;;;;4.63;1.25;;;;;;;12.49;67.40;90560.72;4996368;28;20038;-88
2021/08/08 07:56:31;;;;;;;3.22;1.15;;;;;;;12.49;67.15;90560.72;5028433;28;20026;-88
2021/08/08 07:59:07;;;;;;;3.28;1.00;;;;;;;12.61;66.09;90563.16;4996443;28;20543;-87
2021/08/08 08:01:41;;;;;;;6.50;1.13;;;;;;;12.57;65.68;90570.19;5012458;28;20034;-88
2021/08/08 08:04:15;;;;;;;5.35;1.00;;;;;;;12.73;66.26;90565.63;4997106;28;20026;-88
2021/08/08 08:06:58;;;;;;;3.42;1.40;;;;;;;12.86;66.78;90561.72;4994352;28;20490;-88
2021/08/08 08:09:41;;;;;;;5.70;1.50;;;;;;;12.94;66.06;90562.59;4995152;28;20038;-88
2021/08/08 08:12:23;;;;;;;4.43;0.93;;;;;;;13.06;64.29;90572.09;4995744;28;20508;-88
2021/08/08 08:15:00;;;;;;;7.18;1.67;;;;;;;13.20;65.15;90561.09;5027567;28;20100;-88
2021/08/08 08:17:36;;;;;;;4.05;0.90;;;;;;;13.20;64.39;90572.31;5011970;28;20112;-88
2021/08/08 08:20:08;;;;;;;3.28;1.10;;;;;;;13.32;64.38;90580.03;4995597;28;20046;-88
2021/08/08 08:22:54;;;;;;;3.63;1.10;;;;;;;13.34;63.83;90580.41;4996429;28;20593;-88
2021/08/08 08:25:33;;;;;;;4.72;1.30;;;;;;;13.39;63.54;90574.88;5017063;28;20029;-88
2021/08/08 08:28:12;;;;;;;6.32;1.08;;;;;;;13.22;62.54;90590.31;5035807;28;20047;-88
2021/08/08 08:30:48;;;;;;;5.30;0.90;;;;;;;13.38;63.16;90583.81;5018706;28;20032;-88
2021/08/08 08:33:29;;;;;;;4.35;1.10;;;;;;;13.32;62.98;90589.72;5019871;28;20029;-88
2021/08/08 08:36:03;;;;;;;5.45;1.20;;;;;;;13.37;63.67;90597.28;5019879;28;20025;-88
2021/08/08 08:38:42;;;;;;;5.25;1.00;;;;;;;13.34;64.09;90603.97;5035757;28;20031;-88
2021/08/08 08:41:13;;;;;;;5.57;1.20;;;;;;;13.19;64.84;90602.22;5019973;28;20473;-88
2021/08/08 08:43:54;;;;;;;8.32;1.30;;;;;;;13.24;64.69;90594.09;5019372;28;20021;-87
2021/08/08 08:46:31;;;;;;;3.58;1.00;;;;;;;13.19;64.47;90599.59;5019860;28;20017;-88
2021/08/08 08:49:03;;;;;;;4.50;1.20;;;;;;;13.43;64.81;90610.81;5018110;28;20052;-88
2021/08/08 08:51:46;;;;;;;2.83;0.98;;;;;;;13.45;63.15;90598.13;5031323;28;20425;-88
2021/08/08 08:54:28;;;;;;;4.47;1.20;;;;;;;13.43;64.29;90597.72;5046693;28;20389;-88
2021/08/08 08:57:01;;;;;;;4.72;0.95;;;;;;;13.58;63.22;90602.06;5013873;28;20021;-88
2021/08/08 08:59:37;;;;;;;3.25;0.80;;;;;;;13.52;62.30;90598.22;5031009;28;20021;-88
2021/08/08 09:02:12;;;;;;;3.80;1.13;;;;;;;13.46;61.84;90597.75;5014107;28;20512;-88
2021/08/08 09:04:47;;;;;;;5.28;0.90;;;;;;;13.39;62.79;90606.28;5030700;28;20512;-88
2021/08/08 09:07:24;;;;;;;5.63;1.05;;;;;;;13.39;63.06;90601.06;5047351;28;20026;-88
2021/08/08 09:10:00;;;;;;;3.47;1.05;;;;;;;13.59;61.93;90604.31;5014649;28;20164;-89
2021/08/08 09:12:45;;;;;;;3.95;0.90;;;;;;;13.77;61.80;90604.56;5014317;28;20032;-88
2021/08/08 09:15:31;;;;;;;7.65;1.63;;;;;;;13.91;62.56;90611.09;5015076;28;20017;-88
2021/08/08 09:18:20;;;;;;;10.07;3.15;;;;;;;13.83;59.52;90595.28;5012667;28;20029;-87
2021/08/08 09:21:00;;;;;;;4.80;1.13;;;;;;;13.92;59.45;90599.50;5013509;28;20509;-88
2021/08/08 09:23:37;;;;;;;4.55;1.00;;;;;;;13.90;60.97;90596.50;5013867;28;20754;-88
2021/08/08 09:26:19;;;;;;;5.05;1.00;;;;;;;14.20;61.68;90605.06;5023314;28;20381;-88
2021/08/08 09:29:14;;;;;;;5.50;1.13;;;;;;;14.59;59.47;90604.78;5000974;28;20094;-88
2021/08/08 09:31:59;;;;;;;4.20;1.10;;;;;;;14.69;59.24;90606.75;5019644;28;20107;-88
2021/08/08 09:34:41;;;;;;;4.40;1.30;;;;;;;14.82;59.14;90608.00;5019145;28;20029;-88
2021/08/08 09:37:28;;;;;;;5.40;1.02;;;;;;;14.81;59.29;90606.50;5034696;28;20029;-88
2021/08/08 09:40:03;;;;;;;6.60;1.60;;;;;;;14.87;58.65;90601.69;5003223;28;20099;-88
2021/08/08 09:42:44;;;;;;;4.88;1.00;;;;;;;15.19;59.92;90603.81;5017851;28;20044;-88
2021/08/08 09:45:24;;;;;;;2.75;1.08;;;;;;;15.28;56.62;90607.66;5035492;28;20430;-88
2021/08/08 09:48:04;;;;;;;3.65;0.93;;;;;;;15.28;59.17;90606.91;4999667;28;20581;-88
2021/08/08 09:50:33;;;;;;;1.90;0.80;;;;;;;15.22;56.35;90624.09;5001505;28;20029;-88
2021/08/08 09:53:12;;;;;;;4.78;1.00;;;;;;;15.72;56.70;90613.97;5034278;28;20493;-88
2021/08/08 09:55:46;;;;;;;4.18;0.93;;;;;;;15.64;56.25;90628.16;5018390;28;20485;-87
2021/08/08 09:58:32;;;;;;;5.28;1.20;;;;;;;15.06;55.64;90629.59;5020204;28;20059;-88
2021/08/08 10:01:08;;;;;;;5.93;0.90;;;;;;;14.73;54.54;90635.63;5000422;28;20032;-88
2021/08/08 10:03:49;;;;;;;4.05;0.80;;;;;;;14.71;57.05;90638.63;5018427;28;20032;-88
2021/08/08 10:06:23;;;;;;;3.30;0.85;;;;;;;14.77;57.44;90626.72;5033866;28;20021;-88
2021/08/08 10:08:50;;;;;;;3.07;1.30;;;;;;;14.96;57.31;90636.25;5017771;28;20025;-88
2021/08/08 10:11:29;;;;;;;2.65;0.88;;;;;;;14.89;54.15;90643.31;5071783;23;20338;-85
2021/08/08 10:14:07;;;;;;;4.70;0.90;;;;;;;15.00;56.68;90644.16;5056602;28;20396;-83
2021/08/08 10:16:43;;;;;;;4.03;1.00;;;;;;;15.21;56.13;90633.84;5071176;28;20028;-85
2021/08/08 10:19:22;;;;;;;4.22;1.10;;;;;;;15.24;57.20;90646.25;5054472;28;20032;-86
2021/08/08 10:21:58;;;;;;;6.15;1.30;;;;;;;14.98;57.52;90633.25;5038056;28;20032;-85
2021/08/08 10:24:37;;;;;;;5.10;1.23;;;;;;;14.56;56.68;90653.47;5055666;28;20044;-85
2021/08/08 10:27:12;;;;;;;6.22;0.95;;;;;;;14.70;58.35;90652.88;5051954;28;20025;-85
2021/08/08 10:29:49;;;;;;;4.55;1.00;;;;;;;14.81;58.28;90650.34;5050871;28;20032;-85
2021/08/08 10:32:25;;;;;;;4.68;1.02;;;;;;;14.89;55.54;90632.81;5051709;28;20025;-84
2021/08/08 10:35:16;;;;;;;4.53;1.00;;;;;;;15.07;56.94;90650.22;5037093;28;20037;-85
2021/08/08 10:38:00;;;;;;;4.40;1.17;;;;;;;14.97;60.06;90650.13;5041455;28;20023;-86
2021/08/08 10:40:43;;;;;;;6.22;1.10;;;;;;;14.88;56.30;90658.28;5052034;28;20063;-86
2021/08/08 10:43:44;;;;;;;4.80;0.80;;;;;;;14.70;56.41;90658.13;5035326;28;20443;-86
2021/08/08 10:46:23;;;;;;;4.85;1.55;;;;;;;14.94;58.16;90645.59;5035978;28;20104;-86
2021/08/08 10:49:03;;;;;;;2.90;0.80;;;;;;;14.91;54.69;90648.94;5035154;28;20424;-85
2021/08/08 10:51:40;;;;;;;2.67;0.90;;;;;;;14.74;57.02;90642.41;5050755;28;20103;-85
2021/08/08 10:54:21;;;;;;;3.85;0.80;;;;;;;15.26;57.05;90657.16;5018413;28;20055;-85
2021/08/08 10:56:55;;;;;;;4.55;0.93;;;;;;;15.44;56.00;90635.50;5033554;28;20576;-86
2021/08/08 10:59:38;;;;;;;4.78;1.02;;;;;;;15.47;54.32;90640.03;5034180;28;20405;-85
2021/08/08 11:02:15;;;;;;;5.82;0.90;;;;;;;15.57;54.40;90638.63;5033368;28;20040;-85
2021/08/08 11:04:56;;;;;;;6.00;1.05;;;;;;;15.79;56.77;90629.78;5034196;28;20107;-86
2021/08/08 11:07:33;;;;;;;4.82;1.00;;;;;;;16.08;56.87;90641.22;5034383;28;20048;-86
2021/08/08 11:10:02;;;;;;;4.18;1.10;;;;;;;16.09;52.37;90634.84;5017511;28;20485;-86
2021/08/08 11:12:40;;;;;;;3.65;0.85;;;;;;;15.96;54.53;90634.38;5050237;28;20066;-85
2021/08/08 11:15:19;;;;;;;3.97;1.27;;;;;;;16.19;54.74;90642.03;5033402;28;20025;-86
2021/08/08 11:17:58;;;;;;;4.38;1.15;;;;;;;16.39;54.64;90644.38;5034511;28;20385;-85
2021/08/08 11:20:36;;;;;;;6.05;0.95;;;;;;;16.64;51.94;90645.22;5017200;28;20024;-86
2021/08/08 11:23:18;;;;;;;2.33;1.00;;;;;;;16.80;52.11;90652.81;5033799;28;20024;-86
2021/08/08 11:25:54;;;;;;;3.05;1.00;;;;;;;16.34;52.46;90637.59;5038068;28;20103;-85
2021/08/08 11:28:30;;;;;;;6.40;1.00;;;;;;;16.55;52.14;90657.97;5017942;28;20032;-85
2021/08/08 11:31:05;;;;;;;3.85;0.90;;;;;;;16.54;51.40;90669.63;5033108;28;20116;-85
2021/08/08 11:33:37;;;;;;;2.28;0.88;;;;;;;16.54;51.63;90664.34;5069571;28;20477;-85
2021/08/08 11:36:24;;;;;;;5.28;0.90;;;;;;;16.44;52.42;90670.31;5018521;28;20546;-86
2021/08/08 11:38:56;;;;;;;3.40;0.82;;;;;;;16.48;53.68;90660.56;5022123;28;20033;-86
2021/08/08 11:41:34;;;;;;;6.20;0.90;;;;;;;16.22;50.23;90664.22;5039919;28;20028;-87
2021/08/08 11:44:13;;;;;;;3.35;1.00;;;;;;;15.78;51.84;90654.56;5057450;28;20031;-87
2021/08/08 11:46:54;;;;;;;3.42;1.00;;;;;;;15.90;52.53;90670.03;5040977;28;20052;-84
2021/08/08 11:49:34;;;;;;;3.40;0.93;;;;;;;15.77;52.98;90684.56;5058077;28;20404;-87
2021/08/08 11:52:12;;;;;;;5.45;1.20;;;;;;;15.59;54.27;90671.28;5042004;28;20025;-87
2021/08/08 11:55:00;;;;;;;3.47;0.85;;;;;;;15.44;52.91;90682.78;5026372;28;20025;-86
2021/08/08 11:57:36;;;;;;;3.72;0.95;;;;;;;15.38;53.86;90666.63;5073816;28;20040;-85
2021/08/08 12:00:18;;;;;;;6.07;1.08;;;;;;;15.37;55.46;90669.59;5061518;28;20025;-87
2021/08/08 12:02:54;;;;;;;5.15;1.15;;;;;;;15.98;56.22;90679.47;5040470;28;20025;-86
2021/08/08 12:05:29;;;;;;;9.68;1.30;;;;;;;15.77;54.44;90674.81;5041512;28;20016;-87
2021/08/08 12:08:11;;;;;;;4.28;0.95;;;;;;;16.09;55.16;90669.00;5041345;28;20048;-87
2021/08/08 12:10:45;;;;;;;4.72;1.10;;;;;;;16.27;55.69;90678.88;5047489;28;20037;-87
2021/08/08 12:13:24;;;;;;;7.90;1.63;;;;;;;16.44;53.59;90676.34;5079130;28;20017;-87
2021/08/08 12:16:02;;;;;;;4.78;1.00;;;;;;;16.54;50.64;90684.63;5036822;28;20037;-86
2021/08/08 12:18:42;;;;;;;3.75;1.02;;;;;;;16.56;51.85;90675.25;5037365;28;20056;-85
2021/08/08 12:21:26;;;;;;;5.00;1.02;;;;;;;16.36;51.86;90677.44;5020770;28;20024;-86
2021/08/08 12:24:09;;;;;;;2.70;0.93;;;;;;;16.74;53.02;90688.50;5021292;28;20440;-86
2021/08/08 12:26:52;;;;;;;6.07;1.10;;;;;;;16.85;53.25;90681.38;5040110;28;20024;-85